Time;durP1;ratioP1;P1;durP2;ratioP2;P2;SDS_P1;SDS_P2;PMS_P1;PMS_P2;Temp;Humidity;BMP_temperature;BMP_pressure;BME280_temperature;BME280_humidity;BME280_pressure;Samples;Min_cycle;Max_cycle;Signal;HPM_P1;HPM_P2
2021/01/21 00:01:54;;;;;;;3.50;3.17;;;6.00;99.90;;;;;;5005849;28;20213;-85
2021/01/21 00:04:20;;;;;;;4.20;2.83;;;6.00;99.90;;;;;;4979927;28;20288;-84
2021/01/21 00:06:47;;;;;;;2.78;2.50;;;6.00;99.90;;;;;;4980699;28;20210;-84
2021/01/21 00:09:16;;;;;;;3.08;2.78;;;6.10;99.90;;;;;;4979337;28;20333;-84
2021/01/21 00:11:45;;;;;;;5.15;3.20;;;6.00;99.90;;;;;;5060553;28;20235;-84
2021/01/21 00:14:11;;;;;;;4.40;3.17;;;6.00;99.90;;;;;;5061120;28;20694;-85
2021/01/21 00:16:38;;;;;;;7.60;5.97;;;6.10;99.90;;;;;;5060642;28;20692;-85
2021/01/21 00:19:05;;;;;;;5.65;3.75;;;6.00;99.90;;;;;;5063556;28;20233;-85
2021/01/21 00:21:31;;;;;;;5.32;3.63;;;6.00;99.90;;;;;;5066527;28;20251;-85
2021/01/21 00:23:58;;;;;;;3.72;3.30;;;5.90;99.90;;;;;;5068498;28;20434;-85
2021/01/21 00:26:25;;;;;;;5.32;4.28;;;5.90;99.90;;;;;;5068912;28;20576;-85
2021/01/21 00:28:51;;;;;;;3.50;3.10;;;5.80;99.90;;;;;;5062807;28;20679;-85
2021/01/21 00:31:18;;;;;;;3.40;3.10;;;5.80;99.90;;;;;;5061506;28;20691;-85
2021/01/21 00:33:44;;;;;;;3.47;3.25;;;5.70;99.90;;;;;;5066540;28;20207;-85
2021/01/21 00:36:13;;;;;;;3.80;3.50;;;5.60;99.90;;;;;;5072918;28;20226;-85
2021/01/21 00:38:40;;;;;;;4.15;3.50;;;5.50;99.90;;;;;;5073516;28;20219;-85
2021/01/21 00:41:06;;;;;;;3.60;3.05;;;5.60;99.90;;;;;;5073359;28;20242;-84
2021/01/21 00:43:32;;;;;;;3.55;2.83;;;5.50;99.90;;;;;;5074565;28;20274;-84
2021/01/21 00:45:59;;;;;;;3.75;3.33;;;5.50;99.90;;;;;;5065209;28;20231;-85
2021/01/21 00:48:25;;;;;;;4.32;3.33;;;5.50;99.90;;;;;;5063115;28;20285;-85
2021/01/21 00:50:52;;;;;;;3.53;3.22;;;5.40;99.90;;;;;;5068390;28;20237;-85
2021/01/21 00:53:19;;;;;;;5.57;3.08;;;5.30;99.90;;;;;;5067972;28;20202;-86
2021/01/21 00:55:45;;;;;;;5.97;3.75;;;5.30;99.90;;;;;;5066372;28;20242;-85
2021/01/21 00:58:12;;;;;;;4.60;3.15;;;5.30;99.90;;;;;;5063883;28;20282;-86
2021/01/21 01:00:38;;;;;;;4.60;3.85;;;5.30;99.90;;;;;;5059161;28;20241;-86
2021/01/21 01:03:06;;;;;;;5.60;2.88;;;5.30;99.90;;;;;;5059259;28;20297;-85
2021/01/21 01:05:32;;;;;;;3.92;3.55;;;5.20;99.90;;;;;;5058996;28;20289;-85
2021/01/21 01:07:58;;;;;;;4.22;3.45;;;5.30;99.90;;;;;;5058287;28;20211;-86
2021/01/21 01:10:26;;;;;;;4.53;2.83;;;5.50;99.90;;;;;;5058632;28;20237;-86
2021/01/21 01:12:52;;;;;;;3.05;2.45;;;5.60;99.90;;;;;;5058625;28;20231;-86
2021/01/21 01:15:24;;;;;;;3.08;2.85;;;5.50;99.90;;;;;;5058448;28;20290;-85
2021/01/21 01:17:50;;;;;;;3.42;3.13;;;5.50;99.90;;;;;;5058891;28;20201;-85
2021/01/21 01:20:17;;;;;;;4.15;3.38;;;5.50;99.90;;;;;;5072286;28;20218;-85
2021/01/21 01:22:49;;;;;;;3.08;2.58;;;5.50;99.90;;;;;;5068869;28;20290;-86
2021/01/21 01:25:15;;;;;;;3.08;2.80;;;5.50;99.90;;;;;;5058961;28;20187;-86
2021/01/21 01:27:43;;;;;;;2.83;2.42;;;5.50;99.90;;;;;;5058625;28;20285;-86
2021/01/21 01:30:10;;;;;;;3.00;2.70;;;5.50;99.90;;;;;;5058550;28;20249;-86
2021/01/21 01:32:36;;;;;;;3.53;2.88;;;5.60;99.90;;;;;;5058025;28;20289;-85
2021/01/21 01:35:04;;;;;;;2.45;2.25;;;5.60;99.90;;;;;;5058316;28;20245;-86
2021/01/21 01:37:30;;;;;;;4.32;3.08;;;5.60;99.90;;;;;;5058187;28;20199;-86
2021/01/21 01:39:56;;;;;;;2.90;2.45;;;5.60;99.90;;;;;;5058259;28;20237;-85
2021/01/21 01:42:23;;;;;;;2.38;2.17;;;5.70;99.90;;;;;;5058771;28;20278;-85
2021/01/21 01:44:50;;;;;;;2.88;2.42;;;5.80;99.90;;;;;;5058299;28;20241;-85
2021/01/21 01:47:17;;;;;;;3.28;2.78;;;5.80;99.90;;;;;;5058678;28;20297;-85
2021/01/21 01:49:43;;;;;;;2.97;2.50;;;5.80;99.90;;;;;;5058581;28;20219;-85
2021/01/21 01:52:10;;;;;;;3.75;1.95;;;5.70;99.90;;;;;;5058813;28;20348;-86
2021/01/21 01:54:39;;;;;;;3.47;3.10;;;5.70;99.90;;;;;;5058495;28;20274;-85
2021/01/21 01:57:06;;;;;;;3.10;2.60;;;5.70;99.90;;;;;;5058356;28;20214;-86
2021/01/21 01:59:35;;;;;;;4.00;3.33;;;5.70;99.90;;;;;;5058649;28;20229;-85
2021/01/21 02:02:02;;;;;;;3.92;3.53;;;5.70;99.90;;;;;;5058084;28;20187;-84
2021/01/21 02:04:29;;;;;;;3.95;3.08;;;5.70;99.90;;;;;;5055075;28;20233;-85
2021/01/21 02:06:55;;;;;;;3.20;2.92;;;5.80;99.90;;;;;;5054946;28;20206;-84
2021/01/21 02:09:22;;;;;;;2.72;2.53;;;5.80;99.90;;;;;;5055283;28;20202;-85
2021/01/21 02:12:02;;;;;;;2.60;2.40;;;5.90;99.90;;;;;;5055386;28;20348;-84
2021/01/21 02:14:38;;;;;;;2.50;2.30;;;5.90;99.90;;;;;;5055132;28;20251;-85
2021/01/21 02:17:10;;;;;;;2.92;2.72;;;5.90;99.90;;;;;;5056290;28;20197;-85
2021/01/21 02:20:16;;;;;;;3.05;2.85;;;5.80;99.90;;;;;;5057044;28;20707;-85
2021/01/21 02:23:28;;;;;;;3.42;2.33;;;5.80;99.90;;;;;;5061974;28;20585;-85
2021/01/21 02:26:00;;;;;;;3.53;3.22;;;5.90;99.90;;;;;;5062181;28;20708;-85
2021/01/21 02:28:52;;;;;;;2.58;2.38;;;6.00;99.90;;;;;;5061303;28;20188;-85
2021/01/21 02:31:41;;;;;;;2.83;2.63;;;5.90;99.90;;;;;;5061258;28;20377;-85
2021/01/21 02:34:13;;;;;;;2.70;2.50;;;5.90;99.90;;;;;;5061682;28;20210;-85
2021/01/21 02:36:41;;;;;;;4.85;2.28;;;5.90;99.90;;;;;;5061416;28;20202;-85
2021/01/21 02:39:10;;;;;;;2.35;2.15;;;5.80;99.90;;;;;;5061157;28;20271;-85
2021/01/21 02:41:37;;;;;;;2.42;2.22;;;5.90;99.90;;;;;;5061425;28;20237;-86
2021/01/21 02:44:04;;;;;;;2.85;2.65;;;5.80;99.90;;;;;;5060621;28;20249;-86
2021/01/21 02:46:30;;;;;;;2.35;1.77;;;5.80;99.90;;;;;;5061678;28;20238;-86
2021/01/21 02:48:58;;;;;;;2.05;1.95;;;5.90;99.90;;;;;;5061355;28;20252;-85
2021/01/21 02:51:30;;;;;;;2.00;1.90;;;5.90;99.90;;;;;;5063801;28;20226;-85
2021/01/21 02:54:18;;;;;;;2.20;2.10;;;6.00;99.90;;;;;;5062410;28;20187;-85
2021/01/21 02:56:46;;;;;;;2.42;2.20;;;6.10;99.90;;;;;;5062727;28;20278;-85
2021/01/21 02:59:16;;;;;;;2.33;2.13;;;6.20;99.90;;;;;;5062184;28;20742;-85
2021/01/21 03:01:47;;;;;;;2.38;2.17;;;6.20;99.90;;;;;;5060340;28;20263;-85
2021/01/21 03:04:16;;;;;;;2.17;2.08;;;6.20;99.90;;;;;;5060777;28;20275;-86
2021/01/21 03:06:44;;;;;;;2.30;2.20;;;6.30;99.90;;;;;;5061020;28;20680;-85
2021/01/21 03:09:11;;;;;;;2.50;1.70;;;6.20;99.90;;;;;;5060821;28;20202;-85
2021/01/21 03:11:37;;;;;;;2.63;1.85;;;6.30;99.90;;;;;;5060856;28;20227;-85
2021/01/21 03:14:04;;;;;;;1.85;1.55;;;6.30;99.90;;;;;;5061646;28;20207;-86
2021/01/21 03:16:31;;;;;;;3.15;2.00;;;6.30;99.90;;;;;;5061776;28;20289;-86
2021/01/21 03:18:57;;;;;;;2.10;2.00;;;6.30;99.90;;;;;;5072473;28;20278;-85
2021/01/21 03:21:23;;;;;;;2.20;2.10;;;6.20;99.90;;;;;;5068764;28;20342;-84
2021/01/21 03:23:50;;;;;;;2.10;1.90;;;6.30;99.90;;;;;;5063326;28;20287;-84
2021/01/21 03:26:17;;;;;;;4.50;2.45;;;6.30;99.90;;;;;;5064660;28;20234;-86
2021/01/21 03:28:43;;;;;;;3.15;2.28;;;6.40;99.90;;;;;;5062512;28;20206;-86
2021/01/21 03:31:09;;;;;;;2.50;2.30;;;6.30;99.90;;;;;;5064218;28;20226;-85
2021/01/21 03:33:36;;;;;;;1.80;1.70;;;6.30;99.90;;;;;;5065778;28;20369;-85
2021/01/21 03:36:02;;;;;;;3.05;2.20;;;6.30;99.90;;;;;;5067018;28;20227;-85
2021/01/21 03:38:29;;;;;;;2.60;2.40;;;6.10;99.90;;;;;;5068277;28;20261;-85
2021/01/21 03:40:56;;;;;;;1.52;1.42;;;6.10;99.90;;;;;;5078580;28;20219;-84
2021/01/21 03:43:22;;;;;;;7.28;2.20;;;6.10;99.90;;;;;;5075490;28;20230;-85
2021/01/21 03:45:48;;;;;;;1.83;1.73;;;6.00;99.90;;;;;;5070428;28;20297;-85
2021/01/21 03:48:15;;;;;;;2.30;2.10;;;6.00;99.90;;;;;;5068200;28;20293;-85
2021/01/21 03:50:43;;;;;;;2.30;2.03;;;6.00;99.90;;;;;;5069169;28;20282;-85
2021/01/21 03:53:09;;;;;;;2.13;2.03;;;6.00;99.90;;;;;;5075195;28;20225;-86
2021/01/21 03:55:36;;;;;;;3.42;1.83;;;6.00;99.90;;;;;;5077386;28;20218;-85
2021/01/21 03:58:03;;;;;;;2.30;2.20;;;6.00;99.90;;;;;;5076487;28;20230;-85
2021/01/21 04:00:29;;;;;;;2.83;1.88;;;6.00;99.90;;;;;;5075759;28;20281;-85
2021/01/21 04:02:55;;;;;;;2.00;1.80;;;6.00;99.90;;;;;;5073868;28;20206;-85
2021/01/21 04:05:22;;;;;;;2.60;1.98;;;6.10;99.90;;;;;;5073451;28;20203;-85
2021/01/21 04:07:51;;;;;;;2.03;1.90;;;6.00;99.90;;;;;;5073516;28;20295;-85
2021/01/21 04:10:17;;;;;;;3.10;1.90;;;6.10;99.90;;;;;;5071915;28;20218;-85
2021/01/21 04:12:43;;;;;;;2.45;1.77;;;6.10;99.90;;;;;;5070309;28;20621;-86
2021/01/21 04:15:11;;;;;;;1.60;1.50;;;6.20;99.90;;;;;;5065170;28;20467;-86
2021/01/21 04:17:37;;;;;;;2.88;1.80;;;6.20;99.90;;;;;;5076682;28;20231;-84
2021/01/21 04:20:05;;;;;;;3.00;2.15;;;6.20;99.90;;;;;;5077105;28;20238;-85
2021/01/21 04:22:31;;;;;;;2.00;1.40;;;6.10;99.90;;;;;;5076396;28;20499;-85
2021/01/21 04:24:57;;;;;;;1.85;1.65;;;6.00;99.90;;;;;;5078002;28;20198;-84
2021/01/21 04:27:24;;;;;;;1.80;1.70;;;6.00;99.90;;;;;;5077910;28;20241;-85
2021/01/21 04:29:50;;;;;;;1.88;1.77;;;6.20;99.90;;;;;;5060372;28;20247;-85
2021/01/21 04:32:17;;;;;;;2.28;1.73;;;6.20;99.90;;;;;;5077919;28;20175;-85
2021/01/21 04:34:43;;;;;;;3.10;2.00;;;6.30;99.90;;;;;;5078009;28;20230;-85
2021/01/21 04:37:10;;;;;;;2.33;2.13;;;6.50;99.90;;;;;;5077881;28;20215;-84
2021/01/21 04:39:36;;;;;;;2.58;2.33;;;6.60;99.90;;;;;;5077392;28;20274;-84
2021/01/21 04:42:02;;;;;;;2.55;2.28;;;6.60;99.90;;;;;;5077428;28;20187;-85
2021/01/21 04:44:29;;;;;;;2.38;1.75;;;6.60;99.90;;;;;;5064139;28;20226;-85
2021/01/21 04:46:57;;;;;;;1.88;1.67;;;6.60;99.90;;;;;;5070206;28;20412;-84
2021/01/21 04:49:24;;;;;;;2.45;2.25;;;6.60;99.90;;;;;;5077063;28;20198;-84
2021/01/21 04:51:52;;;;;;;2.42;2.10;;;6.50;99.90;;;;;;5074486;28;20483;-84
2021/01/21 04:54:28;;;;;;;2.28;1.88;;;6.60;99.90;;;;;;5062921;28;20202;-85
2021/01/21 04:56:59;;;;;;;2.63;2.30;;;6.50;99.90;;;;;;5066003;28;20255;-85
2021/01/21 04:59:30;;;;;;;3.50;2.30;;;6.50;99.90;;;;;;5064226;28;20317;-85
2021/01/21 05:01:58;;;;;;;2.60;2.40;;;6.50;99.90;;;;;;5065406;28;20184;-85
2021/01/21 05:04:25;;;;;;;2.20;2.08;;;6.50;99.90;;;;;;5064668;28;20206;-85
2021/01/21 05:06:53;;;;;;;3.38;2.30;;;6.50;99.90;;;;;;5071825;28;20202;-85
2021/01/21 05:09:20;;;;;;;4.47;2.53;;;6.50;99.90;;;;;;5067454;28;20226;-85
2021/01/21 05:11:47;;;;;;;2.28;2.00;;;6.50;99.90;;;;;;5060711;28;20282;-85
2021/01/21 05:14:14;;;;;;;2.08;1.90;;;6.50;99.90;;;;;;5061912;28;20202;-85
2021/01/21 05:16:43;;;;;;;3.30;2.72;;;6.50;99.90;;;;;;5061956;28;20439;-85
2021/01/21 05:19:09;;;;;;;2.92;2.60;;;6.50;99.90;;;;;;5061327;28;20223;-85
2021/01/21 05:21:39;;;;;;;3.10;2.72;;;6.50;99.90;;;;;;5063032;28;20258;-85
2021/01/21 05:24:07;;;;;;;4.00;2.85;;;6.50;99.90;;;;;;5063280;28;20294;-85
2021/01/21 05:26:33;;;;;;;3.30;2.70;;;6.50;99.90;;;;;;5065192;28;20877;-85
2021/01/21 05:29:00;;;;;;;3.63;2.70;;;6.40;99.90;;;;;;5063738;28;20443;-85
2021/01/21 05:31:28;;;;;;;2.97;2.53;;;6.40;99.90;;;;;;5061180;28;20519;-85
2021/01/21 05:33:55;;;;;;;4.60;2.90;;;6.40;99.90;;;;;;5059275;28;20203;-85
2021/01/21 05:36:21;;;;;;;3.92;3.60;;;6.40;99.90;;;;;;5058927;28;20527;-85
2021/01/21 05:38:56;;;;;;;3.15;2.85;;;6.40;99.90;;;;;;5058855;28;20226;-85
2021/01/21 05:41:24;;;;;;;3.30;3.00;;;6.30;99.90;;;;;;5059754;28;20308;-85
2021/01/21 05:43:50;;;;;;;3.50;3.17;;;6.30;99.90;;;;;;5060146;28;20213;-85
2021/01/21 05:46:18;;;;;;;3.65;3.35;;;6.50;99.90;;;;;;5059780;28;20614;-85
2021/01/21 05:48:44;;;;;;;4.50;3.05;;;6.40;99.90;;;;;;5059533;28;20195;-85
2021/01/21 05:51:11;;;;;;;4.45;3.97;;;6.40;99.90;;;;;;5059958;28;20226;-85
2021/01/21 05:53:39;;;;;;;4.47;4.05;;;6.40;99.90;;;;;;5062903;28;20256;-85
2021/01/21 05:56:10;;;;;;;3.95;3.58;;;6.40;99.90;;;;;;5063222;28;20203;-86
2021/01/21 05:58:37;;;;;;;4.25;3.67;;;6.40;99.90;;;;;;5070500;28;20245;-85
2021/01/21 06:01:05;;;;;;;4.93;3.40;;;6.40;99.90;;;;;;5108510;22;20237;-79
2021/01/21 06:03:33;;;;;;;3.95;3.63;;;6.50;99.90;;;;;;5080074;28;20202;-80
2021/01/21 06:06:00;;;;;;;4.20;3.80;;;6.50;99.90;;;;;;5079712;28;20674;-79
2021/01/21 06:08:28;;;;;;;4.93;4.40;;;6.50;99.90;;;;;;5079738;28;20210;-80
2021/01/21 06:10:56;;;;;;;4.22;3.75;;;6.50;99.90;;;;;;5079891;28;20222;-79
2021/01/21 06:13:24;;;;;;;5.75;3.80;;;6.50;99.90;;;;;;5080992;28;20309;-80
2021/01/21 06:15:50;;;;;;;4.60;4.20;;;6.40;99.90;;;;;;5080649;28;20206;-79
2021/01/21 06:18:17;;;;;;;3.97;3.58;;;6.40;99.90;;;;;;5079273;28;20262;-79
2021/01/21 06:20:43;;;;;;;3.90;3.60;;;6.40;99.90;;;;;;5080209;28;20228;-81
2021/01/21 06:23:14;;;;;;;4.10;3.40;;;6.50;99.90;;;;;;5079095;28;20662;-81
2021/01/21 06:25:42;;;;;;;4.88;4.38;;;6.60;99.90;;;;;;5032695;28;20191;-80
2021/01/21 06:28:10;;;;;;;4.18;3.70;;;6.60;99.90;;;;;;5082948;28;20555;-80
2021/01/21 06:30:38;;;;;;;4.45;4.05;;;6.50;99.90;;;;;;5082997;28;20224;-79
2021/01/21 06:33:06;;;;;;;4.15;3.78;;;6.60;99.90;;;;;;5079633;28;20224;-79
2021/01/21 06:35:34;;;;;;;5.10;4.15;;;6.60;99.90;;;;;;5078722;28;20228;-80
2021/01/21 06:38:07;;;;;;;6.25;4.10;;;6.60;99.90;;;;;;5078397;28;20661;-79
2021/01/21 06:40:36;;;;;;;6.05;4.50;;;6.60;99.90;;;;;;5077963;28;20701;-80
2021/01/21 06:43:11;;;;;;;5.70;4.45;;;6.70;99.90;;;;;;5078473;28;20206;-79
2021/01/21 06:45:38;;;;;;;4.68;4.15;;;6.70;99.90;;;;;;5078297;28;20186;-79
2021/01/21 06:48:06;;;;;;;4.90;4.43;;;6.80;99.90;;;;;;5078346;28;20293;-79
2021/01/21 06:50:34;;;;;;;3.78;3.00;;;6.80;99.90;;;;;;5077864;28;20219;-79
2021/01/21 06:53:04;;;;;;;6.53;3.72;;;6.80;99.90;;;;;;5078067;28;20216;-78
2021/01/21 06:55:32;;;;;;;5.07;4.22;;;6.80;99.90;;;;;;5087062;28;20305;-78
2021/01/21 06:57:58;;;;;;;4.93;3.90;;;6.90;99.90;;;;;;5090502;28;20207;-77
2021/01/21 07:00:44;;;;;;;4.65;3.15;;;7.00;99.90;;;;;;5091988;28;20279;-78
2021/01/21 07:03:27;;;;;;;4.05;3.45;;;7.00;99.90;;;;;;5085050;28;20198;-79
2021/01/21 07:05:59;;;;;;;3.30;3.10;;;7.10;99.90;;;;;;5078895;28;20198;-79
2021/01/21 07:08:25;;;;;;;3.80;2.90;;;7.20;99.90;;;;;;5077892;28;20581;-79
2021/01/21 07:10:57;;;;;;;4.68;3.08;;;7.30;99.90;;;;;;5078284;28;20254;-80
2021/01/21 07:13:24;;;;;;;4.03;3.67;;;7.30;99.90;;;;;;5080249;28;20186;-79
2021/01/21 07:15:55;;;;;;;3.88;3.33;;;7.40;99.90;;;;;;5087480;28;20242;-79
2021/01/21 07:18:23;;;;;;;4.75;3.10;;;7.40;99.90;;;;;;5086756;28;20277;-80
2021/01/21 07:21:13;;;;;;;2.95;2.55;;;7.50;99.90;;;;;;5079120;28;20686;-80
2021/01/21 07:23:42;;;;;;;2.80;2.42;;;7.60;99.90;;;;;;5078377;28;20598;-80
2021/01/21 07:26:30;;;;;;;4.32;2.83;;;7.70;99.90;;;;;;5080072;28;20562;-78
2021/01/21 07:29:04;;;;;;;4.78;3.50;;;7.70;99.90;;;;;;5077481;28;20221;-79
2021/01/21 07:31:46;;;;;;;2.72;2.50;;;7.70;99.90;;;;;;5077740;28;20268;-80
2021/01/21 07:34:22;;;;;;;4.22;3.05;;;7.70;99.90;;;;;;5078421;28;20198;-79
2021/01/21 07:37:11;;;;;;;5.53;3.30;;;7.70;99.90;;;;;;5077415;28;20565;-79
2021/01/21 07:39:53;;;;;;;3.17;2.88;;;7.70;99.90;;;;;;5088200;28;20237;-78
2021/01/21 07:42:21;;;;;;;5.60;2.80;;;7.70;99.90;;;;;;5071155;28;20215;-78
2021/01/21 07:44:58;;;;;;;4.57;3.10;;;7.70;99.90;;;;;;5090521;28;20266;-78
2021/01/21 07:47:25;;;;;;;4.03;2.97;;;7.80;99.90;;;;;;5083862;28;20697;-80
2021/01/21 07:50:24;;;;;;;4.68;2.90;;;7.80;99.90;;;;;;5077358;28;20198;-80
2021/01/21 07:52:52;;;;;;;7.63;2.70;;;7.90;99.90;;;;;;5077430;28;20217;-80
2021/01/21 07:55:25;;;;;;;2.85;2.50;;;7.90;99.90;;;;;;5076685;28;20202;-81
2021/01/21 07:57:51;;;;;;;4.18;2.97;;;8.00;99.90;;;;;;5075826;28;20194;-80
2021/01/21 08:00:18;;;;;;;3.17;2.95;;;8.00;99.90;;;;;;5078114;28;20249;-79
2021/01/21 08:02:46;;;;;;;2.42;2.20;;;8.10;99.90;;;;;;5077412;28;20190;-79
2021/01/21 08:05:15;;;;;;;2.88;2.50;;;8.10;99.90;;;;;;5082312;28;20263;-79
2021/01/21 08:07:49;;;;;;;3.10;2.83;;;8.10;99.90;;;;;;5081144;28;20632;-80
2021/01/21 08:10:16;;;;;;;5.32;3.15;;;8.20;99.90;;;;;;5078003;28;20707;-80
2021/01/21 08:12:49;;;;;;;4.10;3.35;;;8.20;99.90;;;;;;5078183;28;20224;-80
2021/01/21 08:15:19;;;;;;;3.83;2.50;;;8.20;99.90;;;;;;5077753;28;20193;-80
2021/01/21 08:17:48;;;;;;;3.00;2.70;;;8.30;99.90;;;;;;5077774;28;20289;-80
2021/01/21 08:20:16;;;;;;;2.55;2.33;;;8.40;99.90;;;;;;5086712;28;20290;-78
2021/01/21 08:22:57;;;;;;;3.33;2.42;;;8.40;99.90;;;;;;5080850;28;20263;-80
2021/01/21 08:25:24;;;;;;;2.58;2.17;;;8.40;99.90;;;;;;5078208;28;20229;-80
2021/01/21 08:27:51;;;;;;;3.40;2.90;;;8.50;99.90;;;;;;5077311;28;20270;-80
2021/01/21 08:30:19;;;;;;;4.88;2.60;;;8.50;99.90;;;;;;5076608;28;20218;-80
2021/01/21 08:32:49;;;;;;;5.60;3.10;;;8.60;99.90;;;;;;5077904;28;20198;-80
2021/01/21 08:35:22;;;;;;;2.90;2.60;;;8.60;99.90;;;;;;5076505;28;20240;-80
2021/01/21 08:37:50;;;;;;;2.95;2.17;;;8.70;99.90;;;;;;5076521;28;20439;-80
2021/01/21 08:40:18;;;;;;;3.17;2.67;;;8.80;99.90;;;;;;5076298;28;20226;-79
2021/01/21 08:42:48;;;;;;;2.93;2.70;;;8.90;99.90;;;;;;5076904;28;20851;-80
2021/01/21 08:45:15;;;;;;;4.57;2.80;;;8.90;99.90;;;;;;5077434;28;20937;-80
2021/01/21 08:47:43;;;;;;;5.90;2.70;;;8.90;99.90;;;;;;5032012;28;20445;-78
2021/01/21 08:50:11;;;;;;;4.43;3.80;;;9.00;99.90;;;;;;5085918;28;20226;-79
2021/01/21 08:52:56;;;;;;;3.97;2.67;;;9.00;99.90;;;;;;5082089;28;20604;-80
2021/01/21 08:55:23;;;;;;;2.87;2.60;;;9.00;99.90;;;;;;5077914;28;20428;-80
2021/01/21 08:58:02;;;;;;;4.80;3.20;;;9.00;99.90;;;;;;5076681;28;20445;-80
2021/01/21 09:00:29;;;;;;;5.72;3.30;;;9.10;99.90;;;;;;5075546;28;20453;-80
2021/01/21 09:02:58;;;;;;;5.43;3.87;;;9.00;99.90;;;;;;5077361;28;20198;-78
2021/01/21 09:05:24;;;;;;;5.90;3.20;;;9.10;99.90;;;;;;5078022;28;20452;-80
2021/01/21 09:08:01;;;;;;;5.07;4.10;;;9.10;99.90;;;;;;5076866;28;20459;-80
2021/01/21 09:10:39;;;;;;;5.13;3.20;;;9.20;99.90;;;;;;5077795;28;20460;-80
2021/01/21 09:13:06;;;;;;;3.43;3.13;;;9.30;99.90;;;;;;5076857;28;20435;-80
2021/01/21 09:15:52;;;;;;;3.20;3.00;;;9.30;99.90;;;;;;5077215;28;20884;-79
2021/01/21 09:18:19;;;;;;;3.70;2.78;;;9.30;99.90;;;;;;5077022;28;20543;-79
2021/01/21 09:20:46;;;;;;;2.53;2.33;;;9.50;99.90;;;;;;5077031;28;20241;-80
2021/01/21 09:23:13;;;;;;;4.27;3.47;;;9.50;99.90;;;;;;5078000;28;20494;-80
2021/01/21 09:25:41;;;;;;;5.33;2.53;;;9.60;99.90;;;;;;5077150;28;20451;-81
2021/01/21 09:28:10;;;;;;;3.00;2.33;;;9.60;99.90;;;;;;5078862;28;20441;-78
2021/01/21 09:30:37;;;;;;;3.40;3.10;;;9.70;99.90;;;;;;5083108;28;20464;-79
2021/01/21 09:33:04;;;;;;;3.27;2.97;;;9.80;99.90;;;;;;5081096;28;20451;-80
2021/01/21 09:35:30;;;;;;;3.20;2.37;;;9.80;99.90;;;;;;5082152;28;20454;-80
2021/01/21 09:37:59;;;;;;;3.30;2.60;;;9.90;99.90;;;;;;5083364;28;20451;-81
2021/01/21 09:40:27;;;;;;;3.43;3.13;;;9.90;99.90;;;;;;5082861;28;20488;-80
2021/01/21 09:42:56;;;;;;;2.77;2.57;;;10.00;99.90;;;;;;5083408;28;20447;-80
2021/01/21 09:45:24;;;;;;;5.10;3.17;;;10.00;99.90;;;;;;5082229;28;20445;-80
2021/01/21 09:47:50;;;;;;;3.13;2.60;;;10.10;99.90;;;;;;5081900;28;20523;-81
2021/01/21 09:50:18;;;;;;;3.70;3.00;;;10.10;99.90;;;;;;5082328;28;20469;-80
2021/01/21 09:52:44;;;;;;;2.70;2.50;;;10.20;99.90;;;;;;5081387;28;20453;-80
2021/01/21 09:55:11;;;;;;;3.30;2.73;;;10.20;99.90;;;;;;5081111;28;20452;-80
2021/01/21 09:57:39;;;;;;;4.93;2.90;;;10.20;99.90;;;;;;5081467;28;20448;-80
2021/01/21 10:00:08;;;;;;;6.53;3.10;;;10.20;99.90;;;;;;5081754;28;20951;-80
2021/01/21 10:02:34;;;;;;;3.03;2.20;;;10.30;99.90;;;;;;5081193;28;20503;-81
2021/01/21 10:05:01;;;;;;;3.47;2.70;;;10.40;99.90;;;;;;5080530;28;20445;-79
2021/01/21 10:07:27;;;;;;;2.50;2.27;;;10.40;99.90;;;;;;5080430;28;20455;-79
2021/01/21 10:09:54;;;;;;;2.80;2.40;;;10.40;99.90;;;;;;5080623;28;20429;-79
2021/01/21 10:12:20;;;;;;;4.13;3.40;;;10.40;99.90;;;;;;5080541;28;20536;-79
2021/01/21 10:14:46;;;;;;;3.47;3.17;;;10.40;99.90;;;;;;5080426;28;20864;-80
2021/01/21 10:17:14;;;;;;;5.73;3.07;;;10.50;99.90;;;;;;5080943;28;20528;-81
2021/01/21 10:19:40;;;;;;;3.60;3.00;;;10.50;99.90;;;;;;5080037;28;20480;-80
2021/01/21 10:22:07;;;;;;;3.30;2.67;;;10.50;99.90;;;;;;5079539;28;20551;-80
2021/01/21 10:24:34;;;;;;;4.37;3.93;;;10.40;99.90;;;;;;5084876;28;20476;-78
2021/01/21 10:27:00;;;;;;;3.30;3.00;;;10.40;99.90;;;;;;5089531;28;20453;-78
2021/01/21 10:29:27;;;;;;;3.30;2.60;;;10.50;99.90;;;;;;5089174;28;20472;-80
2021/01/21 10:31:53;;;;;;;3.10;2.80;;;10.60;99.90;;;;;;5081261;28;20544;-81
2021/01/21 10:34:20;;;;;;;5.33;2.67;;;10.60;99.90;;;;;;5080965;28;20450;-80
2021/01/21 10:36:47;;;;;;;3.80;2.63;;;10.60;99.90;;;;;;5080410;28;20484;-79
2021/01/21 10:39:13;;;;;;;3.03;2.67;;;10.60;99.90;;;;;;5088643;28;20589;-78
2021/01/21 10:41:40;;;;;;;3.80;2.57;;;10.60;99.90;;;;;;5086624;28;20551;-79
2021/01/21 10:44:06;;;;;;;2.77;2.57;;;10.60;99.90;;;;;;5089633;28;20445;-79
2021/01/21 10:46:33;;;;;;;4.60;2.27;;;10.70;99.90;;;;;;5089098;28;20524;-78
2021/01/21 10:48:59;;;;;;;3.10;1.90;;;10.70;99.90;;;;;;5082031;28;20470;-79
2021/01/21 10:51:26;;;;;;;5.10;2.20;;;10.70;99.90;;;;;;5079618;28;20558;-80
2021/01/21 10:53:52;;;;;;;3.27;2.50;;;10.80;99.90;;;;;;5080162;28;20475;-80
2021/01/21 10:56:19;;;;;;;5.63;3.13;;;10.80;99.90;;;;;;5079927;28;20449;-80
2021/01/21 10:58:45;;;;;;;2.63;2.43;;;10.80;99.90;;;;;;5079769;28;20456;-79
2021/01/21 11:01:11;;;;;;;3.90;2.30;;;10.90;99.90;;;;;;5079156;28;20480;-81
2021/01/21 11:03:39;;;;;;;2.80;2.60;;;10.90;99.90;;;;;;5079600;28;20514;-80
2021/01/21 11:06:05;;;;;;;4.20;2.70;;;11.00;99.90;;;;;;5083818;28;20466;-79
2021/01/21 11:08:33;;;;;;;2.37;2.17;;;11.10;99.90;;;;;;5083035;28;20489;-82
2021/01/21 11:10:59;;;;;;;4.97;3.47;;;11.10;99.90;;;;;;5084513;28;20464;-77
2021/01/21 11:13:25;;;;;;;4.83;2.60;;;11.20;99.90;;;;;;5085776;28;20965;-80
2021/01/21 11:15:52;;;;;;;4.67;3.20;;;11.30;99.90;;;;;;5086940;28;20425;-81
2021/01/21 11:18:18;;;;;;;2.70;2.50;;;11.20;99.90;;;;;;5084396;28;20448;-79
2021/01/21 11:20:44;;;;;;;3.67;2.77;;;11.30;99.90;;;;;;5077965;28;20988;-80
2021/01/21 11:23:11;;;;;;;3.30;2.77;;;11.30;99.90;;;;;;5078275;28;21022;-79
2021/01/21 11:25:38;;;;;;;6.33;3.57;;;11.30;99.90;;;;;;5078713;28;20913;-79
2021/01/21 11:28:05;;;;;;;7.70;4.10;;;11.30;99.90;;;;;;5077954;28;20561;-79
2021/01/21 11:30:33;;;;;;;3.67;3.37;;;;;;;;;;5076903;28;20467;-79
2021/01/21 11:33:00;;;;;;;4.40;4.00;;;11.30;99.90;;;;;;5077963;28;20444;-80
2021/01/21 11:35:26;;;;;;;4.43;3.10;;;11.30;99.90;;;;;;5078817;28;20487;-79
2021/01/21 11:37:53;;;;;;;3.20;2.90;;;11.40;99.90;;;;;;5078635;28;20448;-79
2021/01/21 11:40:19;;;;;;;8.90;3.67;;;11.40;99.90;;;;;;5078246;28;20566;-79
2021/01/21 11:42:46;;;;;;;3.40;2.87;;;11.50;99.90;;;;;;5077905;28;20449;-79
2021/01/21 11:45:13;;;;;;;5.17;3.40;;;11.60;99.90;;;;;;5076808;28;20452;-80
2021/01/21 11:47:40;;;;;;;5.03;3.40;;;11.70;99.90;;;;;;5077841;28;20455;-80
2021/01/21 11:50:10;;;;;;;4.87;3.17;;;11.70;99.90;;;;;;5077228;28;20445;-80
2021/01/21 11:52:36;;;;;;;3.17;2.87;;;11.70;99.90;;;;;;5077538;28;21000;-79
2021/01/21 11:55:03;;;;;;;5.57;3.73;;;11.70;99.90;;;;;;5078139;28;20445;-79
2021/01/21 11:57:29;;;;;;;3.40;2.90;;;11.70;99.90;;;;;;5078189;28;20444;-80
2021/01/21 11:59:57;;;;;;;5.80;4.23;;;11.70;99.90;;;;;;5078559;28;20533;-79
2021/01/21 12:02:24;;;;;;;8.10;3.80;;;11.70;99.90;;;;;;5101305;22;20554;-81
2021/01/21 12:04:50;;;;;;;4.60;4.13;;;11.70;99.90;;;;;;5087433;28;20462;-80
2021/01/21 12:07:16;;;;;;;4.70;4.30;;;11.70;99.90;;;;;;5082379;28;20527;-80
2021/01/21 12:09:44;;;;;;;6.07;4.03;;;11.80;99.90;;;;;;5082493;28;20491;-80
2021/01/21 12:12:11;;;;;;;5.70;3.57;;;11.90;99.90;;;;;;5083022;28;20544;-82
2021/01/21 12:14:37;;;;;;;3.63;2.83;;;12.00;99.90;;;;;;5081345;28;20419;-81
2021/01/21 12:17:04;;;;;;;4.83;3.10;;;12.00;99.90;;;;;;5082487;28;20444;-80
2021/01/21 12:19:31;;;;;;;5.53;2.80;;;12.10;99.90;;;;;;5081140;28;20569;-80
2021/01/21 12:21:57;;;;;;;3.00;2.60;;;12.20;99.90;;;;;;5080614;28;20499;-80
2021/01/21 12:24:23;;;;;;;2.53;2.33;;;12.20;99.90;;;;;;5081083;28;20538;-80
2021/01/21 12:26:50;;;;;;;2.53;2.30;;;12.20;99.90;;;;;;5080528;28;21026;-80
2021/01/21 12:29:16;;;;;;;4.70;1.47;;;12.20;99.90;;;;;;5080771;28;20527;-80
2021/01/21 12:31:42;;;;;;;5.70;2.20;;;12.30;99.90;;;;;;5082583;28;20468;-80
2021/01/21 12:34:10;;;;;;;1.90;1.80;;;12.20;99.90;;;;;;5081839;28;20452;-80
2021/01/21 12:36:52;;;;;;;2.40;1.70;;;12.20;99.90;;;;;;5082504;28;20454;-80
2021/01/21 12:39:19;;;;;;;3.90;1.97;;;12.20;99.90;;;;;;5083348;28;20187;-80
2021/01/21 12:42:13;;;;;;;3.33;2.63;;;12.20;99.90;;;;;;5083599;28;20992;-80
2021/01/21 12:44:41;;;;;;;3.30;2.60;;;12.30;99.90;;;;;;5081277;28;20467;-80
2021/01/21 12:47:25;;;;;;;3.10;2.80;;;12.20;99.90;;;;;;5081438;28;20448;-81
2021/01/21 12:50:11;;;;;;;5.43;2.73;;;12.20;99.90;;;;;;5081198;28;20456;-80
2021/01/21 12:52:37;;;;;;;2.40;2.20;;;12.20;99.90;;;;;;5081261;28;20637;-80
2021/01/21 12:55:05;;;;;;;7.40;2.10;;;12.20;99.90;;;;;;5081781;28;20452;-80
2021/01/21 12:57:31;;;;;;;1.90;1.80;;;12.20;99.90;;;;;;5085862;28;20476;-80
2021/01/21 12:59:58;;;;;;;2.30;1.67;;;12.20;99.90;;;;;;5084267;28;20476;-81
2021/01/21 13:02:26;;;;;;;2.40;1.80;;;12.20;99.90;;;;;;5084271;28;20469;-81
2021/01/21 13:04:54;;;;;;;2.03;1.70;;;12.20;99.90;;;;;;5083836;28;20436;-79